Palisades, WA (98845)

10:49 PM PST on February 13, 2016 (GMT -0800)
CloudviewEphrata | | Change Station
CLOSE
Current Station
Personal Weather Station
Location: Ephrata, WA
Elevation: 1263 ft
Nearby Weather Stations

Elev 1263 ft 47.34 °N, 119.54 °W | Updated 14 seconds ago

Overcast
Overcast
39.2 °F
Feels Like 39 °F
N
2.7
Wind Variable Wind from ESE
Gusts 4.9 mph

Today
High -- | Low -- °F
--% Chance of Precip.
Yesterday
High -- | Low -- °F
Precip. -- in
Pressure 30.10 in
Visibility 10.0 miles
Clouds Scattered Clouds 6000 ft
Mostly Cloudy 8000 ft
Windchill 39 °F
Dew Point 36 °F
Humidity 89%
Rainfall 0.07 in
Snow Depth Not available.
7:08 AM 5:18 PM
Waxing Crescent, 38% visible
METAR KEPH 140553Z AUTO 18007KT 10SM SCT060 BKN080 03/03 A3007 RMK AO2 SLP192 60004 T00330028 10067 20033 56009
Pressure 30.10 in
Visibility 10.0 miles
Clouds Scattered Clouds 6000 ft
Mostly Cloudy 8000 ft
Windchill 39 °F
Dew Point 36 °F
Humidity 89%
Rainfall 0.07 in
Snow Depth Not available.
7:08 AM 5:18 PM
Waxing Crescent, 38% visible
METAR KEPH 140553Z AUTO 18007KT 10SM SCT060 BKN080 03/03 A3007 RMK AO2 SLP192 60004 T00330028 10067 20033 56009

10-Day Weather Forecast

Almanac

Astronomy

Feb. 13, 2016 Rise Set
Actual Time
Civil Twilight
Nautical Twilight
Astronomical Twilight
Moon
Length of Visible Light
Length of Day
Tomorrow will be .
, % of the Moon is Illuminated

Today's Extremes

State Highs State Lows

Community

WunderPhotos

Upload Photos

1,892,757 photos uploaded!

WunderBlog® & News

Nearby

Air Quality

  Air Quality AQ Index Pollutant
Not available.

Snow Depth

Station Depth Elevation

Earthquake Activity

City Distance Mag. Time & Date
Minimum magnitude displayed is 2.5.

Coastal Water Temperatures

Place Temperature

Stations

Nearby Weather Stations

Station Location Temp. Windchill Dew Point Humidity Wind Precip. Elev Updated Type
                   

Watches & Warnings

There are currently no watches in effect.